Thursday, August 16, 2018, 9:59 AM EDT
Back to Local

KPSM, Pease Air Force Base / Portsmouth

Location: Portsmouth, NH, United States Lat: 43.083
Local Time: 9:59 AM EDT (13:59 GMT) Lon: -70.817
Time Zone: US/Eastern Elev: 101 ft

Show me the last for .
Show Decoded

2018-08-16 08:56 METAR KPSM 161256Z 28007KT 10SM FEW250 25/20 A2996 RMK AO2A SLP147 T02510199 =
2018-08-16 07:56 METAR KPSM 161156Z 26005KT 10SM FEW250 23/20 A2995 RMK AO2A SLP144 T02330198
                 10233 20214 52017 =
2018-08-16 06:56 METAR KPSM 161056Z 24003KT 10SM FEW100 SCT250 22/20 A2994 RMK AO2A SLP140
                 T02210196 =
2018-08-16 05:56 METAR KPSM 160956Z 25004KT 10SM FEW120 BKN150 BKN250 22/19 A2993 RMK AO2A SLP137
                 T02150194 =
2018-08-16 04:56 METAR KPSM 160856Z 27005KT 10SM FEW150 BKN250 22/19 A2990 RMK AO2A SLP127
                 T02210194 52011 =
2018-08-16 03:56 METAR KPSM 160756Z 26005KT 10SM FEW150 BKN250 23/20 A2989 RMK AO2A SLP123
                 T02250198 =
2018-08-16 02:56 METAR KPSM 160656Z 27006KT 10SM FEW150 BKN250 23/20 A2988 RMK AO2A SLP120
                 T02280199 =
2018-08-16 01:56 METAR KPSM 160556Z 27006KT 10SM FEW120 SCT150 BKN250 23/20 A2987 RMK AO2A SLP117
                 T02300201 10255 20226 50000 =
2018-08-16 00:56 METAR KPSM 160456Z 27006KT 10SM FEW065 SCT150 BKN250 23/21 A2988 RMK AO2A SLP120
                 T02280210 402980206 =
2018-08-15 23:56 METAR KPSM 160356Z 24003KT 10SM FEW065 SCT150 BKN250 23/21 A2987 RMK AO2A SLP116
                 T02290211 =
2018-08-15 22:56 METAR KPSM 160256Z 00000KT 10SM FEW150 BKN250 23/21 A2987 RMK AO2A SLP117
                 T02310210 51015 =
2018-08-15 21:56 METAR KPSM 160156Z 26004KT 10SM BKN150 OVC250 25/21 A2986 RMK AO2A SLP113
                 T02460207 =
2018-08-15 20:56 METAR KPSM 160056Z 24005KT 10SM BKN250 24/22 A2986 RMK AO2A SLP113 T02440215 =
2018-08-15 19:56 METAR KPSM 152356Z 23003KT 10SM SCT250 25/21 A2982 RMK AO2A SLP100 T02530214
                 10298 20253 53007 =
2018-08-15 18:56 METAR KPSM 152256Z 00000KT 10SM FEW250 27/22 A2981 RMK AO2A SLP096 T02700222 =
2018-08-15 17:56 METAR KPSM 152156Z 16004KT 10SM FEW030 SCT250 27/22 A2980 RMK AO2A SLP093
                 T02710216 =
2018-08-15 16:56 METAR KPSM 152056Z 15007KT 10SM FEW040 BKN250 27/22 A2980 RMK AO2A SLP093
                 T02700215 55004 =
2018-08-15 14:56 METAR KPSM 151856Z 24003KT 10SM FEW030 SCT250 29/20 A2980 RMK AO2A SLP093
                 T02920201 =
2018-08-15 13:56 METAR KPSM 151756Z 25004KT 10SM SCT025 BKN250 28/21 A2981 RMK AO2A SLP096
                 T02810206 10281 20211 57007 =
2018-08-15 12:56 METAR KPSM 151656Z 27004KT 10SM SCT022 BKN250 27/21 A2982 RMK AO2A SLP100
                 T02700208 =
2018-08-15 12:30 METAR KPSM 151630Z 00000KT 10SM SCT020 BKN250 27/21 A2983 RMK AO2A =
2018-08-15 11:56 METAR KPSM 151556Z 25006KT 10SM BKN016 26/21 A2983 RMK AO2A SLP103 T02630210 =
2018-08-15 10:56 METAR KPSM 151456Z 29006KT 10SM BKN015 24/21 A2983 RMK AO2A SLP103 T02360205
                 52006 =
2018-08-15 10:28 METAR KPSM 151428Z 30007KT 10SM OVC010 23/21 A2983 RMK AO2A =

Support USWX by starting your Amazon purchase here.